Aérodrome :
LOGIN :

S'inscrire | Disclaimer

   EN    FR    IT 

 










Légende :    VFR   VFR Marginal   IFR   IFR Intensif   IFR Très Intensif
Visi : 
Plafond : 
>= 8 km
>= 3000ft
5 à 8 km
1000 à 3000 ft
1500m à 5 km
500 à 1000 ft
800 à 1500m
200 à 500 ft
< 800m
< 200 ft
Symboles :   Orages  Brouillard  Fortes neiges  Fortes précipitations  Vent > 20 kt
SIGMETs :   Divers  Orages  Givrage  Turbulence  Onde Orograph.  Cendres Volcan.






- Altitude de l'aérodrome : 330 ft
- Code IATA : LVA


LFOV - Laval-Entrammes

DERNIER METAR :
  • 231000Z AUTO 22013KT 190V250 7000 OVC006 11/10 Q1027

METARs EXPIRÉS :
  • 230930Z AUTO 22010KT 190V250 3900 -DZ BR OVC005 10/10 Q1027
  • 230900Z AUTO 22011KT 190V250 3800 -DZ BR OVC005 10/10 Q1027
  • 230830Z AUTO 22012KT 190V250 3900 BR OVC005 10/09 Q1027
  • 230800Z AUTO 22011KT 190V250 4900 BR OVC005 10/09 Q1027
  • 230730Z AUTO 22011KT 190V250 4300 BR OVC005 10/09 Q1027

TAF N/A



MET'MAP, la Météo Aéronautique d'un coup d'oeil ! - Copyright ORBIFLY Décembre 2007 - Disclaimer

ORBIFLY MET'MAP TEAM :

Programmation & Développement : Alexandra Zaïnal
Sur une idée originale de : Baudouin d'Aumeries
Assistance à la programmation : Marc-Olivier Méhu
Soutien technique & logistique : Manuel Goepfert

Contact : metmap@orbifly.com




SOURCES & CREDITS :

   NOAA